Time;durP1;ratioP1;P1;durP2;ratioP2;P2;SDS_P1;SDS_P2;PMS_P1;PMS_P2;Temp;Humidity;BMP_temperature;BMP_pressure;BME280_temperature;BME280_humidity;BME280_pressure;Samples;Min_cycle;Max_cycle;Signal;HPM_P1;HPM_P2
2021/03/06 00:00:17;;;;;;;;;47.33;43.33;;;;;4.73;76.74;101122.19;5030686;28;11691;-80
2021/03/06 00:03:12;;;;;;;;;56.67;46.67;;;;;4.94;76.25;101109.22;5015388;28;11655;-79
2021/03/06 00:06:09;;;;;;;;;51.00;43.67;;;;;4.96;75.96;101106.19;5018249;28;11639;-80
2021/03/06 00:09:05;;;;;;;;;50.67;45.33;;;;;4.85;76.50;101104.63;5035051;28;11644;-79
2021/03/06 00:12:02;;;;;;;;;64.00;52.00;;;;;4.80;76.91;101110.13;5031999;28;11751;-80
2021/03/06 00:14:59;;;;;;;;;60.33;52.33;;;;;5.00;76.10;101093.56;5030035;28;8893;-80
2021/03/06 00:17:54;;;;;;;;;66.00;52.00;;;;;4.62;76.90;101111.59;5030024;28;8838;-80
2021/03/06 00:20:36;;;;;;;;;65.67;52.33;;;;;4.74;77.20;101098.34;5015336;28;8851;-80
2021/03/06 00:23:32;;;;;;;;;67.67;53.00;;;;;4.64;77.35;101101.16;5029199;28;8843;-80
2021/03/06 00:26:27;;;;;;;;;70.67;53.00;;;;;4.57;77.80;101089.69;5018303;28;8901;-79
2021/03/06 00:29:23;;;;;;;;;57.33;49.00;;;;;4.48;77.76;101083.97;5016908;28;8870;-80
2021/03/06 00:32:05;;;;;;;;;54.00;43.67;;;;;4.51;78.19;101077.09;5034045;28;8871;-78
2021/03/06 00:34:33;;;;;;;;;54.00;45.33;;;;;4.32;78.87;101085.97;5029970;28;9704;-79
2021/03/06 00:37:29;;;;;;;;;35.67;34.00;;;;;4.14;79.78;101094.75;5035732;28;11610;-78
2021/03/06 00:40:25;;;;;;;;;42.67;42.00;;;;;3.95;80.26;101090.97;5034025;28;11637;-80
2021/03/06 00:43:20;;;;;;;;;33.67;33.67;;;;;3.83;80.83;101091.25;5034076;28;11746;-81
2021/03/06 00:46:16;;;;;;;;;60.33;51.33;;;;;4.00;80.94;101093.72;5021010;28;11623;-80
2021/03/06 00:49:21;;;;;;;;;42.33;36.00;;;;;3.87;81.33;101095.09;5017473;28;8873;-80
2021/03/06 00:52:17;;;;;;;;;54.67;49.00;;;;;4.06;81.06;101098.88;5032138;28;8831;-81
2021/03/06 00:55:13;;;;;;;;;47.67;44.00;;;;;4.04;81.48;101101.09;5021345;28;8882;-79
2021/03/06 00:58:08;;;;;;;;;53.67;46.33;;;;;4.06;80.99;101089.84;5034071;28;11699;-79
2021/03/06 01:01:06;;;;;;;;;33.25;30.75;;;;;3.77;81.48;101086.91;5034841;28;8865;-80
2021/03/06 01:04:02;;;;;;;;;32.00;32.00;;;;;4.21;80.42;101087.06;5033365;28;11696;-77
2021/03/06 01:06:58;;;;;;;;;43.00;39.33;;;;;4.17;80.79;101081.34;5032064;28;11796;-78
2021/03/06 01:09:53;;;;;;;;;44.33;41.67;;;;;3.82;81.21;101084.16;5021967;28;11755;-79
2021/03/06 01:12:49;;;;;;;;;56.33;47.67;;;;;4.07;81.07;101089.59;5034138;28;11623;-78
2021/03/06 01:15:45;;;;;;;;;41.00;36.33;;;;;3.88;81.35;101091.25;5034872;28;8839;-81
2021/03/06 01:18:41;;;;;;;;;47.33;43.00;;;;;3.72;81.44;101085.00;5019635;28;11643;-80
2021/03/06 01:21:16;;;;;;;;;34.67;34.67;;;;;3.70;81.36;101078.16;5031018;28;8870;-79
2021/03/06 01:24:12;;;;;;;;;27.75;25.25;;;;;3.52;81.63;101072.16;5032963;28;11647;-79
2021/03/06 01:27:07;;;;;;;;;32.67;29.67;;;;;3.53;81.36;101073.81;5032923;28;11671;-78
2021/03/06 01:29:57;;;;;;;;;26.00;24.67;;;;;3.25;82.36;101077.09;5019076;28;11617;-78
2021/03/06 01:32:52;;;;;;;;;29.33;28.33;;;;;3.44;81.80;101077.34;5032416;28;12116;-77
2021/03/06 01:35:22;;;;;;;;;31.33;31.00;;;;;3.21;82.27;101084.19;5033753;28;11639;-77
2021/03/06 01:38:06;;;;;;;;;35.67;35.67;;;;;3.38;81.79;101090.22;5037120;28;11719;-77
2021/03/06 01:41:02;;;;;;;;;16.50;16.50;;;;;3.00;83.01;101089.63;5032306;28;11587;-78
2021/03/06 01:43:58;;;;;;;;;20.25;19.50;;;;;3.25;81.63;101094.31;5031840;28;11673;-77
2021/03/06 01:46:33;;;;;;;;;24.50;24.00;;;;;3.11;82.63;101097.84;5033417;28;12358;-78
2021/03/06 01:49:29;;;;;;;;;24.33;24.00;;;;;3.29;82.12;101110.97;5020813;28;11742;-77
2021/03/06 01:52:25;;;;;;;;;22.25;22.25;;;;;3.15;82.08;101110.72;5018626;28;11688;-76
2021/03/06 01:55:23;;;;;;;;;25.25;25.25;;;;;3.32;81.63;101115.91;5017485;28;11662;-76
2021/03/06 01:58:19;;;;;;;;;24.67;24.67;;;;;3.20;82.26;101118.91;5017972;28;11662;-77
2021/03/06 02:01:18;;;;;;;;;32.00;28.67;;;;;3.40;81.75;101120.84;5020147;28;11733;-76
2021/03/06 02:04:15;;;;;;;;;24.50;24.50;;;;;3.41;81.52;101122.47;5031880;28;11612;-77
2021/03/06 02:07:13;;;;;;;;;28.00;27.00;;;;;3.48;80.99;101123.03;5018371;28;11715;-76
2021/03/06 02:10:11;;;;;;;;;30.75;25.25;;;;;3.34;80.74;101128.22;5032116;28;11611;-76
2021/03/06 02:13:25;;;;;;;;;21.50;21.50;;;;;3.25;81.62;101132.56;5032219;28;11612;-75
2021/03/06 02:16:42;;;;;;;;;21.00;21.00;;;;;3.49;80.71;101126.59;5015780;28;11591;-76
2021/03/06 02:19:50;;;;;;;;;24.75;22.75;;;;;3.20;81.38;101129.81;5030575;28;11670;-76
2021/03/06 02:22:56;;;;;;;;;14.25;12.75;;;;;2.96;82.34;101136.88;5034193;28;11711;-76
2021/03/06 02:26:02;;;;;;;;;19.75;19.75;;;;;3.06;81.76;101142.38;5032301;28;11676;-78
2021/03/06 02:29:25;;;;;;;;;16.25;16.25;;;;;3.10;81.67;101151.69;5033385;28;11656;-77
2021/03/06 02:31:56;;;;;;;;;17.50;17.50;;;;;3.12;81.93;101156.88;4999943;28;11602;-77
2021/03/06 02:34:59;;;;;;;;;15.75;15.75;;;;;3.07;81.75;101163.16;5020374;28;11643;-75
2021/03/06 02:37:47;;;;;;;;;20.50;20.50;;;;;3.14;80.84;101171.06;5017671;28;11661;-76
2021/03/06 02:40:44;;;;;;;;;17.75;17.75;;;;;3.20;81.01;101172.75;5018258;28;11637;-77
2021/03/06 02:43:41;;;;;;;;;13.50;13.50;;;;;3.40;80.31;101169.25;5030609;28;11595;-77
2021/03/06 02:46:37;;;;;;;;;13.75;13.75;;;;;3.25;80.41;101180.97;5031842;28;11678;-77
2021/03/06 02:49:33;;;;;;;;;14.50;13.00;;;;;3.15;80.95;101184.50;5034311;28;11593;-77
2021/03/06 02:52:29;;;;;;;;;18.50;17.25;;;;;2.97;81.29;101196.72;5032052;28;11690;-76
2021/03/06 02:55:25;;;;;;;;;16.75;16.00;;;;;2.80;82.27;101207.03;5017864;28;12520;-76
2021/03/06 02:58:34;;;;;;;;;8.75;8.75;;;;;2.68;83.18;101211.88;5018525;28;11607;-79
2021/03/06 03:02:00;;;;;;;;;23.33;21.00;;;;;2.74;82.82;101213.56;5019508;28;11631;-78
2021/03/06 03:05:20;;;;;;;;;18.67;18.67;;;;;2.71;83.27;101222.31;5029293;28;11597;-77
2021/03/06 03:08:53;;;;;;;;;17.00;17.00;;;;;2.59;83.13;101227.13;5031388;28;11586;-78
2021/03/06 03:12:02;;;;;;;;;19.67;19.67;;;;;2.37;84.70;101235.47;5020148;28;11623;-79
2021/03/06 03:14:59;;;;;;;;;17.25;17.25;;;;;2.40;84.20;101238.50;5029596;28;11726;-78
2021/03/06 03:17:37;;;;;;;;;18.67;18.67;;;;;2.35;84.61;101232.19;5011790;28;11615;-80
2021/03/06 03:20:55;;;;;;;;;18.00;18.00;;;;;2.32;84.84;101233.53;5011781;28;11641;-78
2021/03/06 03:24:21;;;;;;;;;21.00;20.00;;;;;2.33;85.34;101237.91;5012465;28;11621;-78
2021/03/06 03:27:17;;;;;;;;;15.25;15.25;;;;;2.34;85.09;101247.75;4999000;28;12330;-78
2021/03/06 03:30:17;;;;;;;;;14.25;14.25;;;;;2.38;84.24;101250.78;5011921;28;11604;-77
2021/03/06 03:33:15;;;;;;;;;16.00;16.00;;;;;2.53;84.69;101239.09;5009436;28;11669;-78
2021/03/06 03:36:12;;;;;;;;;18.00;16.67;;;;;2.61;83.99;101244.91;5011133;28;11770;-78
2021/03/06 03:39:09;;;;;;;;;14.67;13.33;;;;;2.46;84.12;101253.84;5000009;28;11602;-77
2021/03/06 03:42:06;;;;;;;;;8.25;8.25;;;;;2.36;84.20;101256.47;5011044;28;11713;-80
2021/03/06 03:45:09;;;;;;;;;12.50;12.50;;;;;2.63;84.03;101241.91;5009635;28;11571;-79
2021/03/06 03:48:05;;;;;;;;;11.50;11.50;;;;;2.52;83.54;101235.56;5010735;28;11580;-78
2021/03/06 03:51:02;;;;;;;;;15.00;15.00;;;;;2.63;83.24;101240.00;4997648;28;11585;-78
2021/03/06 03:53:57;;;;;;;;;15.67;15.67;;;;;2.68;83.53;101250.13;4999700;28;11649;-78
2021/03/06 03:56:53;;;;;;;;;15.33;15.33;;;;;2.57;83.08;101240.25;4993981;28;11675;-77
2021/03/06 03:59:48;;;;;;;;;14.00;11.00;;;;;2.63;83.13;101237.28;4998386;28;11671;-78
2021/03/06 04:02:23;;;;;;;;;14.00;14.00;;;;;2.68;82.88;101231.00;4994242;28;11594;-79
2021/03/06 04:05:18;;;;;;;;;14.25;14.25;;;;;2.68;82.50;101231.81;4994825;28;11700;-77
2021/03/06 04:08:19;;;;;;;;;14.50;14.50;;;;;2.66;82.95;101230.47;5016726;28;11625;-78
2021/03/06 04:11:14;;;;;;;;;19.67;18.33;;;;;2.81;82.79;101221.53;5012603;28;11614;-79
2021/03/06 04:14:10;;;;;;;;;17.25;17.25;;;;;2.86;81.62;101213.34;5012191;28;11647;-79
2021/03/06 04:17:07;;;;;;;;;17.00;16.00;;;;;2.70;81.76;101217.94;5014203;28;11656;-79
2021/03/06 04:19:34;;;;;;;;;14.50;11.25;;;;;2.49;82.64;101209.63;5013519;28;11639;-80
2021/03/06 04:22:30;;;;;;;;;17.00;17.00;;;;;2.71;81.83;101214.09;5001920;28;12477;-79
2021/03/06 04:25:26;;;;;;;;;20.75;17.50;;;;;2.78;81.17;101222.88;4995869;28;11608;-78
2021/03/06 04:28:21;;;;;;;;;16.25;16.25;;;;;2.79;81.24;101221.78;5000718;28;11598;-79
2021/03/06 04:31:17;;;;;;;;;16.25;16.25;;;;;2.68;82.12;101229.09;5002525;28;11794;-77
2021/03/06 04:34:14;;;;;;;;;20.33;20.00;;;;;2.63;81.90;101234.56;5014594;28;12433;-79
2021/03/06 04:37:10;;;;;;;;;18.00;17.33;;;;;2.86;81.36;101246.13;5014459;28;11692;-79
2021/03/06 04:40:09;;;;;;;;;14.00;14.00;;;;;2.82;81.50;101245.84;5000463;28;11692;-79
2021/03/06 04:43:05;;;;;;;;;18.00;16.75;;;;;2.90;81.32;101241.78;5014465;28;11692;-79
2021/03/06 04:46:00;;;;;;;;;17.00;17.00;;;;;2.91;81.35;101248.88;5011169;28;11581;-79
2021/03/06 04:48:57;;;;;;;;;17.00;17.00;;;;;2.87;81.18;101240.41;4992548;28;11615;-80
2021/03/06 04:51:52;;;;;;;;;17.75;16.00;;;;;2.84;81.47;101248.28;5014466;28;11628;-80
2021/03/06 04:54:49;;;;;;;;;15.50;14.75;;;;;2.85;81.54;101258.16;5008807;28;12417;-79
2021/03/06 04:57:44;;;;;;;;;13.75;13.75;;;;;3.01;80.53;101255.22;5009365;28;11616;-80
2021/03/06 05:00:12;;;;;;;;;17.25;17.25;;;;;3.06;80.41;101238.00;5018599;28;11694;-81
2021/03/06 05:02:55;;;;;;;;;14.25;14.25;;;;;3.21;80.62;101240.81;4999225;28;11640;-81
2021/03/06 05:05:50;;;;;;;;;17.00;16.00;;;;;2.95;81.33;101252.72;4996056;28;11631;-81
2021/03/06 05:08:46;;;;;;;;;14.50;14.00;;;;;2.89;80.83;101259.25;4997692;28;11686;-80
2021/03/06 05:11:14;;;;;;;;;19.50;18.25;;;;;2.83;81.22;101274.78;4998133;28;11606;-81
2021/03/06 05:14:11;;;;;;;;;14.00;14.00;;;;;2.60;82.24;101283.41;5010667;28;11692;-80
2021/03/06 05:17:06;;;;;;;;;12.75;12.75;;;;;2.98;81.45;101295.91;5001920;28;11580;-80
2021/03/06 05:20:03;;;;;;;;;20.25;17.00;;;;;2.67;82.06;101286.72;5013110;28;11599;-80
2021/03/06 05:22:59;;;;;;;;;20.75;20.75;;;;;2.77;81.68;101300.47;4995912;28;11743;-79
2021/03/06 05:25:55;;;;;;;;;40.00;35.33;;;;;2.73;81.39;101305.63;4989001;28;11665;-79
2021/03/06 05:28:51;;;;;;;;;14.25;14.25;;;;;2.72;81.08;101303.97;4988883;28;8886;-81
2021/03/06 05:31:47;;;;;;;;;11.67;11.67;;;;;2.60;81.92;101318.91;5000166;28;11682;-80
2021/03/06 05:34:42;;;;;;;;;22.00;22.00;;;;;2.65;82.45;101318.94;4998366;28;11594;-80
2021/03/06 05:37:38;;;;;;;;;19.00;19.00;;;;;2.50;82.60;101334.13;4996491;28;11637;-80
2021/03/06 05:40:06;;;;;;;;;20.33;19.67;;;;;2.46;83.32;101335.75;5016512;28;11639;-79
2021/03/06 05:43:02;;;;;;;;;25.00;23.00;;;;;2.40;83.96;101347.72;5012132;28;11618;-80
2021/03/06 05:45:30;;;;;;;;;27.33;26.00;;;;;2.49;83.39;101350.78;5014986;28;11608;-80
2021/03/06 05:48:25;;;;;;;;;22.33;22.33;;;;;2.35;83.84;101363.22;4997932;28;11620;-79
2021/03/06 05:51:22;;;;;;;;;19.33;19.33;;;;;2.39;83.97;101356.16;5014309;28;11625;-80
2021/03/06 06:43:25;;;;;;;;;4.00;4.00;;;;;1.57;81.00;101458.94;5571390;24;12478;-77
2021/03/06 06:45:53;;;;;;;;;9.67;9.33;;;;;1.59;81.39;101454.03;4869936;29;11772;-79
2021/03/06 06:49:00;;;;;;;;;3.00;3.00;;;;;1.34;80.95;101454.53;4864879;29;11704;-78
2021/03/06 06:52:00;;;;;;;;;4.00;4.00;;;;;1.57;81.18;101444.47;4851258;29;11734;-71
2021/03/06 06:54:58;;;;;;;;;1.50;1.50;;;;;1.56;80.06;101453.72;4859904;29;11821;-82
2021/03/06 06:57:54;;;;;;;;;1.00;1.00;;;;;1.54;79.64;101445.81;4860441;29;11689;-82
2021/03/06 07:00:50;;;;;;;;;2.00;2.00;;;;;1.55;80.89;101433.00;4847773;29;11709;-80
2021/03/06 07:03:45;;;;;;;;;2.50;2.50;;;;;1.75;80.02;101446.06;4863135;29;11844;-82
2021/03/06 07:06:58;;;;;;;;;1.25;1.25;;;;;1.87;79.03;101453.03;4878381;29;11652;-82
2021/03/06 07:09:55;;;;;;;;;3.50;3.50;;;;;1.75;79.55;101460.50;4866008;29;12427;-82
2021/03/06 07:13:00;;;;;;;;;4.25;4.25;;;;;1.91;80.15;101456.91;4866028;29;11691;-82
2021/03/06 07:15:56;;;;;;;;;2.50;2.50;;;;;1.66;80.11;101462.84;4878536;29;11730;-83
2021/03/06 07:18:59;;;;;;;;;0.00;0.00;;;;;1.69;80.68;101467.00;4877682;29;11712;-81
2021/03/06 07:21:55;;;;;;;;;8.00;8.00;;;;;1.99;80.75;101473.91;4865795;29;11635;-81
2021/03/06 07:24:50;;;;;;;;;8.00;7.00;;;;;2.06;79.67;101483.53;4878088;29;11744;-81
2021/03/06 07:27:47;;;;;;;;;6.33;6.33;;;;;2.07;78.98;101477.03;4877223;29;11805;-82
2021/03/06 07:30:43;;;;;;;;;5.50;5.50;;;;;2.19;79.28;101483.16;4865675;29;11656;-82
2021/03/06 07:33:42;;;;;;;;;8.00;8.00;;;;;2.32;78.97;101483.84;4865522;29;11659;-81
2021/03/06 07:36:40;;;;;;;;;6.75;6.75;;;;;2.30;77.76;101492.31;4865448;29;11768;-81
2021/03/06 07:39:39;;;;;;;;;7.75;5.00;;;;;1.99;78.74;101485.63;4855649;29;11773;-81
2021/03/06 07:42:51;;;;;;;;;5.75;5.00;;;;;2.04;78.60;101482.97;4863243;29;11813;-80
2021/03/06 07:45:51;;;;;;;;;5.00;5.00;;;;;2.23;77.67;101487.03;4863290;29;11671;-81
2021/03/06 07:48:51;;;;;;;;;4.00;4.00;;;;;2.06;77.04;101494.44;4875178;29;11710;-78
2021/03/06 07:51:47;;;;;;;;;4.25;4.25;;;;;2.23;76.92;101506.16;4876105;29;11730;-78
2021/03/06 07:54:24;;;;;;;;;2.00;2.00;;;;;2.27;76.90;101505.63;4872679;29;11705;-78
2021/03/06 07:56:54;;;;;;;;;0.00;0.00;;;;;2.02;76.23;101501.50;4872161;29;11678;-78
2021/03/06 07:59:52;;;;;;;;;2.00;2.00;;;;;2.11;76.64;101504.63;4858336;29;11680;-78
2021/03/06 08:02:39;;;;;;;;;2.00;2.00;;;;;2.15;76.40;101506.59;4872924;29;12450;-78
2021/03/06 08:05:53;;;;;;;;;3.75;3.75;;;;;2.19;75.78;101517.81;4872798;29;11798;-77
2021/03/06 08:08:32;;;;;;;;;2.00;2.00;;;;;2.01;75.67;101524.44;4856629;29;11637;-78
2021/03/06 08:11:26;;;;;;;;;2.50;2.50;;;;;2.10;75.66;101522.06;4858011;29;11637;-78
2021/03/06 08:14:35;;;;;;;;;3.50;3.50;;;;;2.32;75.81;101527.53;4868919;29;12510;-79
2021/03/06 08:17:03;;;;;;;;;3.00;3.00;;;;;2.45;75.51;101525.22;4855002;29;12446;-78
2021/03/06 08:19:33;;;;;;;;;4.00;4.00;;;;;2.39;74.75;101534.44;4874770;29;11727;-77
2021/03/06 08:22:15;;;;;;;;;11.00;11.00;;;;;2.61;75.22;101541.78;4842503;29;11767;-79
2021/03/06 08:25:16;;;;;;;;;5.00;5.00;;;;;2.55;73.99;101534.63;4874827;29;11685;-78
2021/03/06 08:27:43;;;;;;;;;4.67;4.67;;;;;2.25;75.53;101535.91;4844125;29;12441;-78
2021/03/06 08:30:39;;;;;;;;;6.00;6.00;;;;;2.69;74.76;101541.31;4871014;29;11640;-79
2021/03/06 08:33:19;;;;;;;;;6.00;6.00;;;;;2.74;74.14;101531.25;4841405;29;11681;-78
2021/03/06 08:35:50;;;;;;;;;11.33;11.00;;;;;2.77;74.59;101524.47;4855816;29;11664;-78
2021/03/06 08:38:30;;;;;;;;;7.25;7.25;;;;;2.93;74.25;101542.66;4856801;29;11614;-79
2021/03/06 08:40:58;;;;;;;;;11.00;11.00;;;;;3.25;73.66;101548.13;4871830;29;11686;-79
2021/03/06 08:43:26;;;;;;;;;7.75;7.75;;;;;2.75;73.26;101543.00;4872460;29;11665;-79
2021/03/06 08:45:54;;;;;;;;;14.50;14.50;;;;;3.17;72.72;101547.78;4856711;29;11720;-78
2021/03/06 08:48:30;;;;;;;;;4.00;4.00;;;;;3.17;72.41;101545.03;4851351;29;11703;-79
2021/03/06 08:50:59;;;;;;;;;1.75;1.75;;;;;2.88;71.69;101550.78;4873489;29;12418;-78
2021/03/06 08:53:41;;;;;;;;;11.25;11.25;;;;;2.84;72.40;101557.00;4871804;29;11716;-78
2021/03/06 08:56:09;;;;;;;;;3.50;3.50;;;;;2.92;71.59;101549.19;4863208;29;11650;-78
2021/03/06 08:58:50;;;;;;;;;5.00;5.00;;;;;3.02;70.94;101552.00;4871484;29;12463;-78
2021/03/06 09:01:46;;;;;;;;;5.00;4.00;;;;;3.25;71.02;101556.31;4870754;29;11647;-78
2021/03/06 09:04:42;;;;;;;;;4.00;4.00;;;;;3.10;70.43;101561.66;4871368;29;11654;-78
2021/03/06 09:07:12;;;;;;;;;4.25;4.25;;;;;2.93;70.66;101567.25;4871730;29;11676;-79
2021/03/06 09:09:38;;;;;;;;;4.00;2.50;;;;;2.95;70.75;101569.72;4870621;29;11703;-79
2021/03/06 09:12:08;;;;;;;;;5.50;5.50;;;;;3.30;69.94;101566.47;4872234;29;11683;-79
2021/03/06 09:14:41;;;;;;;;;5.00;5.00;;;;;3.27;69.09;101561.50;4872497;29;11745;-79
2021/03/06 09:17:11;;;;;;;;;4.75;4.75;;;;;3.37;69.76;101564.31;4855233;29;11676;-78
2021/03/06 09:19:49;;;;;;;;;4.00;4.00;;;;;3.26;68.71;101577.09;4869451;29;11705;-79
2021/03/06 09:22:49;;;;;;;;;7.00;7.00;;;;;3.17;69.54;101580.56;4868810;29;11820;-78
2021/03/06 09:25:38;;;;;;;;;5.75;5.75;;;;;3.49;69.38;101581.38;4859065;29;11654;-78
2021/03/06 09:28:11;;;;;;;;;6.50;6.50;;;;;3.42;69.00;101585.44;4873848;29;11774;-78
2021/03/06 09:30:55;;;;;;;;;6.25;6.25;;;;;3.75;68.65;101576.91;4871014;29;11670;-79
2021/03/06 09:33:51;;;;;;;;;13.00;13.00;;;;;3.92;67.78;101581.41;4872252;29;12452;-79
2021/03/06 09:36:46;;;;;;;;;4.75;4.75;;;;;3.90;65.75;101573.44;4862249;29;11680;-79
2021/03/06 09:39:32;;;;;;;;;3.50;3.50;;;;;3.88;66.18;101581.09;4870827;29;11662;-79
2021/03/06 09:41:59;;;;;;;;;3.00;3.00;;;;;3.87;66.91;101576.72;4870754;29;11706;-79
2021/03/06 09:44:28;;;;;;;;;2.50;2.50;;;;;4.20;66.59;101583.75;4873197;29;11633;-79
2021/03/06 09:46:59;;;;;;;;;4.25;4.25;;;;;4.38;65.60;101585.22;4872462;29;11719;-79
2021/03/06 09:49:35;;;;;;;;;4.25;3.50;;;;;4.84;62.57;101582.63;4870489;29;11690;-79
2021/03/06 09:52:03;;;;;;;;;6.00;5.50;;;;;4.97;62.81;101591.13;4874184;29;11753;-78
2021/03/06 09:54:36;;;;;;;;;4.75;4.75;;;;;4.78;62.66;101587.25;4869316;29;11690;-78
2021/03/06 09:57:11;;;;;;;;;4.50;4.50;;;;;4.44;62.57;101589.59;4871994;29;12475;-79
2021/03/06 09:59:41;;;;;;;;;9.50;9.50;;;;;4.37;62.48;101598.09;4872138;29;11671;-79
2021/03/06 10:02:12;;;;;;;;;8.75;8.75;;;;;4.17;62.17;101603.44;4871809;29;11790;-79
2021/03/06 10:04:45;;;;;;;;;5.50;5.50;;;;;4.12;63.56;101600.69;4869974;29;11638;-78
2021/03/06 10:07:19;;;;;;;;;7.00;7.00;;;;;4.13;62.51;101605.88;4874869;29;11676;-80
2021/03/06 10:09:47;;;;;;;;;6.00;6.00;;;;;4.21;64.26;101609.19;4871622;29;11646;-80
2021/03/06 10:12:17;;;;;;;;;15.50;15.50;;;;;4.40;63.78;101608.50;4868572;29;11683;-78
2021/03/06 10:14:48;;;;;;;;;12.25;12.25;;;;;4.63;64.78;101606.41;4871952;29;11683;-79
2021/03/06 10:17:22;;;;;;;;;16.50;15.50;;;;;4.48;63.81;101615.38;4855000;29;11664;-80
2021/03/06 10:19:55;;;;;;;;;13.50;13.50;;;;;4.31;63.55;101610.09;4869382;29;11820;-78
2021/03/06 10:22:50;;;;;;;;;8.50;8.50;;;;;4.14;62.52;101603.97;4870863;29;11728;-79
2021/03/06 10:25:24;;;;;;;;;10.00;10.00;;;;;4.31;64.25;101614.75;4871096;29;11660;-79
2021/03/06 10:28:12;;;;;;;;;19.00;13.75;;;;;4.72;63.17;101619.28;4871039;29;11691;-79
2021/03/06 10:30:41;;;;;;;;;20.00;20.00;;;;;4.78;63.66;101619.31;4870876;29;11706;-77
2021/03/06 10:33:22;;;;;;;;;34.25;30.50;;;;;4.96;62.56;101622.38;4872548;29;11768;-79
2021/03/06 10:36:18;;;;;;;;;39.25;35.25;;;;;5.07;62.97;101625.16;4871055;29;11728;-79
2021/03/06 10:38:45;;;;;;;;;22.75;22.75;;;;;4.90;61.49;101611.66;4868734;29;11721;-79
2021/03/06 10:41:17;;;;;;;;;23.75;23.50;;;;;5.04;59.72;101623.75;4871168;29;11703;-78
2021/03/06 10:43:54;;;;;;;;;34.50;29.50;;;;;4.98;60.49;101630.31;4869704;29;11815;-78
2021/03/06 10:46:25;;;;;;;;;37.75;35.75;;;;;4.92;60.34;101621.28;4869357;29;12496;-79
2021/03/06 10:48:56;;;;;;;;;24.25;24.00;;;;;5.05;59.11;101625.41;4873394;29;11786;-78
2021/03/06 10:51:25;;;;;;;;;39.00;35.75;;;;;5.07;60.17;101634.22;4869348;29;11793;-79
2021/03/06 10:54:04;;;;;;;;;31.75;28.50;;;;;4.95;58.28;101634.44;4869099;29;11743;-76
2021/03/06 10:57:06;;;;;;;;;22.25;22.25;;;;;5.29;58.49;101629.31;4854656;29;11760;-81
2021/03/06 10:59:49;;;;;;;;;31.25;30.75;;;;;5.24;58.62;101623.81;4869736;29;11723;-82
2021/03/06 11:02:25;;;;;;;;;40.50;37.50;;;;;5.24;58.67;101620.25;4870722;29;11760;-81
2021/03/06 11:05:14;;;;;;;;;60.25;47.50;;;;;5.34;58.73;101619.44;4870822;29;11796;-81
2021/03/06 11:08:21;;;;;;;;;40.25;35.50;;;;;5.28;58.57;101626.81;4866871;29;11716;-81
2021/03/06 11:10:54;;;;;;;;;25.25;21.75;;;;;5.26;57.12;101627.09;4870203;29;11872;-81
2021/03/06 11:13:46;;;;;;;;;23.50;22.00;;;;;5.41;57.86;101620.81;4870402;29;11810;-82
2021/03/06 11:16:14;;;;;;;;;24.75;24.75;;;;;5.33;59.59;101628.75;4870955;29;11736;-82
2021/03/06 11:19:10;;;;;;;;;14.50;13.25;;;;;5.11;58.87;101627.06;4869779;29;11718;-81
2021/03/06 11:21:57;;;;;;;;;24.00;24.00;;;;;5.15;58.90;101624.63;4856532;29;11693;-82
2021/03/06 11:24:25;;;;;;;;;33.00;30.25;;;;;5.26;59.12;101621.59;4868625;29;11771;-82
2021/03/06 11:26:53;;;;;;;;;24.50;22.75;;;;;5.28;58.17;101624.06;4869523;29;11744;-82
2021/03/06 11:29:22;;;;;;;;;15.75;13.50;;;;;4.93;58.42;101617.44;4862464;29;11770;-82
2021/03/06 11:32:20;;;;;;;;;36.75;32.50;;;;;5.23;59.91;101632.31;4857388;29;11776;-82
2021/03/06 11:34:49;;;;;;;;;25.00;23.25;;;;;4.99;59.76;101632.81;4869559;29;11812;-81
2021/03/06 11:37:48;;;;;;;;;26.00;22.25;;;;;4.89;58.11;101641.00;4868282;29;11912;-82
2021/03/06 11:40:18;;;;;;;;;43.25;40.00;;;;;5.23;59.19;101630.41;4852605;29;11697;-81
2021/03/06 11:43:02;;;;;;;;;33.50;32.75;;;;;5.24;58.78;101637.53;4869825;29;11708;-82
2021/03/06 11:45:59;;;;;;;;;27.25;25.75;;;;;5.32;57.42;101649.06;4857002;29;11756;-81
2021/03/06 11:48:42;;;;;;;;;22.50;20.75;;;;;5.27;57.85;101638.88;4869439;29;11841;-82
2021/03/06 11:51:23;;;;;;;;;16.00;15.75;;;;;5.20;57.32;101643.81;4867440;29;11696;-82
2021/03/06 11:54:20;;;;;;;;;11.75;10.00;;;;;5.04;57.46;101648.44;4869892;29;12649;-82
2021/03/06 11:56:47;;;;;;;;;18.50;18.50;;;;;5.11;58.56;101645.44;4868435;29;11877;-81
2021/03/06 11:59:14;;;;;;;;;25.50;21.25;;;;;5.18;58.35;101651.50;4869236;29;11731;-82
2021/03/06 12:01:41;;;;;;;;;20.25;20.25;;;;;5.06;57.53;101648.16;4851343;29;11746;-82
2021/03/06 12:04:08;;;;;;;;;33.00;30.50;;;;;5.36;56.92;101661.13;4861138;29;11731;-82
2021/03/06 12:07:04;;;;;;;;;14.00;11.75;;;;;4.79;57.65;101651.94;4857818;29;11778;-82
2021/03/06 12:09:53;;;;;;;;;17.75;16.50;;;;;5.30;57.65;101657.56;4867498;29;11682;-82
2021/03/06 12:12:20;;;;;;;;;21.50;21.50;;;;;5.43;56.76;101664.41;4853158;29;11703;-83
2021/03/06 12:15:30;;;;;;;;;40.50;35.75;;;;;5.13;57.52;101668.75;4863247;29;11711;-83
2021/03/06 12:18:25;;;;;;;;;26.25;24.50;;;;;5.22;58.31;101672.63;4856858;29;11726;-82
2021/03/06 12:21:23;;;;;;;;;31.00;26.00;;;;;5.54;55.65;101661.44;4870294;29;12507;-81
2021/03/06 12:24:18;;;;;;;;;32.50;32.00;;;;;5.65;55.57;101667.72;4856523;29;11763;-81
2021/03/06 12:27:16;;;;;;;;;33.75;32.00;;;;;5.36;54.61;101672.09;4867001;29;11769;-82
2021/03/06 12:30:15;;;;;;;;;40.00;39.00;;;;;5.52;57.40;101677.34;4858662;29;11742;-82
2021/03/06 12:32:47;;;;;;;;;45.25;41.00;;;;;5.75;55.42;101677.88;4871449;29;11738;-82
2021/03/06 12:35:17;;;;;;;;;63.00;52.75;;;;;6.07;56.17;101683.13;4856978;29;11860;-80
2021/03/06 12:38:07;;;;;;;;;42.50;36.75;;;;;6.26;55.18;101691.59;4864727;29;11764;-80
2021/03/06 12:41:03;;;;;;;;;30.00;26.75;;;;;6.21;53.98;101697.97;4873556;29;11732;-81
2021/03/06 12:43:45;;;;;;;;;24.75;22.25;;;;;6.45;53.49;101700.94;4869760;29;11808;-81
2021/03/06 12:46:22;;;;;;;;;18.00;17.75;;;;;6.71;51.73;101695.34;4856513;29;11708;-81
2021/03/06 12:49:19;;;;;;;;;19.75;19.75;;;;;7.06;50.83;101692.44;4871663;29;11811;-83
2021/03/06 12:52:15;;;;;;;;;14.50;14.50;;;;;7.24;50.75;101693.72;4873298;29;11733;-81
2021/03/06 12:55:12;;;;;;;;;10.25;10.25;;;;;7.05;49.91;101695.47;4860010;29;11725;-82
2021/03/06 12:58:08;;;;;;;;;11.25;11.25;;;;;7.17;50.39;101705.03;4871761;29;11690;-81
2021/03/06 13:00:39;;;;;;;;;13.75;13.75;;;;;7.36;49.85;101705.22;4870615;29;11818;-81
2021/03/06 13:03:07;;;;;;;;;10.75;10.75;;;;;6.95;49.95;101696.34;4856305;29;11645;-81
2021/03/06 13:05:50;;;;;;;;;11.75;11.75;;;;;7.15;50.38;101703.69;4865528;29;11804;-81
2021/03/06 13:08:17;;;;;;;;;10.25;10.25;;;;;7.00;49.36;101701.00;4871684;29;11728;-81
2021/03/06 13:11:03;;;;;;;;;10.00;10.00;;;;;7.15;50.04;101711.94;4870371;29;11739;-81
2021/03/06 13:13:54;;;;;;;;;5.25;5.25;;;;;6.75;50.19;101713.75;4870889;29;11617;-81
2021/03/06 13:16:22;;;;;;;;;18.50;18.50;;;;;6.97;48.93;101711.44;4839580;29;11658;-82
2021/03/06 13:19:18;;;;;;;;;14.50;14.50;;;;;6.90;48.88;101710.09;4871173;29;12473;-82
2021/03/06 13:22:14;;;;;;;;;17.00;15.50;;;;;6.73;48.98;101709.63;4868912;29;11711;-81
2021/03/06 13:24:56;;;;;;;;;18.75;18.50;;;;;7.24;48.91;101710.22;4870299;29;11860;-81
2021/03/06 13:27:23;;;;;;;;;20.25;20.00;;;;;7.53;48.16;101727.66;4861813;29;12513;-81
2021/03/06 13:30:21;;;;;;;;;16.50;15.75;;;;;7.80;46.64;101732.69;4871202;29;11725;-81
2021/03/06 13:33:17;;;;;;;;;7.00;7.00;;;;;7.59;45.22;101727.63;4846389;29;11773;-81
2021/03/06 13:36:06;;;;;;;;;7.00;7.00;;;;;7.84;45.71;101729.38;4858721;29;11620;-76
2021/03/06 13:38:34;;;;;;;;;10.75;10.75;;;;;7.06;47.52;101730.13;4870157;29;11729;-75
2021/03/06 13:41:04;;;;;;;;;5.00;5.00;;;;;6.90;47.60;101734.84;4872623;29;11628;-82
2021/03/06 13:43:33;;;;;;;;;10.00;10.00;;;;;7.13;48.82;101736.97;4853404;29;11622;-82
2021/03/06 13:46:01;;;;;;;;;8.50;8.50;;;;;7.23;46.65;101738.84;4869823;29;12435;-81
2021/03/06 13:48:30;;;;;;;;;10.00;10.00;;;;;7.11;47.14;101727.34;4857183;29;11787;-82